Time;durP1;ratioP1;P1;durP2;ratioP2;P2;SDS_P1;SDS_P2;PMS_P1;PMS_P2;Temp;Humidity;BMP_temperature;BMP_pressure;BME280_temperature;BME280_humidity;BME280_pressure;Samples;Min_cycle;Max_cycle;Signal;HPM_P1;HPM_P2
2022/07/28 00:02:21;;;;;;;8.30;7.50;;;;;;;18.75;100.00;99988.45;1743848;82;21019;-59
2022/07/28 00:04:48;;;;;;;10.53;7.20;;;;;;;18.73;100.00;99986.58;1745954;82;21158;-60
2022/07/28 00:07:17;;;;;;;8.93;6.73;;;;;;;18.77;100.00;99983.73;1746203;82;21027;-59
2022/07/28 00:09:44;;;;;;;7.63;6.63;;;;;;;18.77;100.00;99992.97;1746592;81;20955;-68
2022/07/28 00:12:11;;;;;;;9.57;7.73;;;;;;;18.77;100.00;99995.09;1746044;82;21364;-59
2022/07/28 00:14:39;;;;;;;8.33;6.53;;;;;;;18.75;100.00;99989.77;1746550;82;21340;-60
2022/07/28 00:17:07;;;;;;;8.63;7.37;;;;;;;18.73;100.00;99982.09;1746662;81;21095;-60
2022/07/28 00:19:36;;;;;;;9.07;6.80;;;;;;;18.80;100.00;99981.93;1746631;82;20931;-69
2022/07/28 00:22:03;;;;;;;8.47;6.33;;;;;;;18.74;100.00;99984.21;1745985;81;21281;-60
2022/07/28 00:24:31;;;;;;;8.37;7.00;;;;;;;18.68;100.00;99978.05;1746852;82;21455;-59
2022/07/28 00:26:59;;;;;;;8.20;7.33;;;;;;;18.67;100.00;99984.34;1746564;82;20984;-59
2022/07/28 00:29:26;;;;;;;8.80;7.43;;;;;;;18.61;100.00;99991.41;1746239;81;21226;-69
2022/07/28 00:31:53;;;;;;;8.63;7.37;;;;;;;18.52;100.00;99992.05;1745981;82;22387;-60
2022/07/28 00:34:20;;;;;;;8.07;6.60;;;;;;;18.52;100.00;99990.20;1746339;82;21043;-61
2022/07/28 00:36:47;;;;;;;10.83;7.07;;;;;;;18.52;100.00;99990.73;1746533;82;20963;-59
2022/07/28 00:39:14;;;;;;;9.00;6.47;;;;;;;18.46;100.00;99990.66;1746467;81;21067;-59
2022/07/28 00:41:42;;;;;;;7.57;6.80;;;;;;;18.48;100.00;99990.41;1746799;82;21232;-68
2022/07/28 00:44:10;;;;;;;10.20;6.53;;;;;;;18.51;100.00;99989.94;1746016;82;21122;-58
2022/07/28 00:46:38;;;;;;;8.30;6.57;;;;;;;18.45;100.00;99998.83;1746847;81;21348;-59
2022/07/28 00:49:06;;;;;;;7.77;6.97;;;;;;;18.46;100.00;99991.98;1746669;82;21016;-58
2022/07/28 00:51:34;;;;;;;8.10;6.67;;;;;;;18.43;100.00;99995.63;1746669;81;21121;-63
2022/07/28 00:54:01;;;;;;;7.97;6.77;;;;;;;18.45;100.00;99993.55;1745368;82;21207;-60
2022/07/28 00:56:29;;;;;;;7.23;6.40;;;;;;;18.45;100.00;99994.88;1746855;82;22101;-58
2022/07/28 00:58:56;;;;;;;9.73;6.20;;;;;;;18.62;100.00;99995.64;1747188;81;20970;-59
2022/07/28 01:01:24;;;;;;;8.60;6.23;;;;;;;18.68;100.00;99997.32;1747267;81;20990;-58
2022/07/28 01:04:00;;;;;;;9.73;6.90;;;;;;;18.80;100.00;99997.77;1746599;81;21011;-65
2022/07/28 01:06:43;;;;;;;8.70;6.93;;;;;;;18.83;100.00;100003.90;1748591;82;21217;-58
2022/07/28 01:09:38;;;;;;;10.50;7.13;;;;;;;18.93;100.00;100007.97;1749082;82;20948;-58
2022/07/28 01:12:23;;;;;;;8.40;6.77;;;;;;;18.88;100.00;100006.59;1748836;82;20960;-58
2022/07/28 01:15:08;;;;;;;10.10;7.30;;;;;;;18.82;100.00;99998.31;1747966;81;20968;-68
2022/07/28 01:17:59;;;;;;;10.80;7.53;;;;;;;18.64;100.00;100001.49;1748312;82;20978;-59
2022/07/28 01:20:41;;;;;;;8.58;7.33;;;;;;;18.65;100.00;100003.61;1746981;81;21231;-66
2022/07/28 01:23:50;;;;;;;10.17;7.43;;;;;;;18.51;100.00;99993.89;1748593;82;20940;-58
2022/07/28 01:26:49;;;;;;;10.17;6.37;;;;;;;18.48;100.00;99995.16;1748251;82;21835;-61
2022/07/28 01:29:28;;;;;;;8.20;6.97;;;;;;;18.40;100.00;100007.45;1747779;82;21058;-61
2022/07/28 01:32:06;;;;;;;10.53;7.17;;;;;;;18.37;100.00;100004.48;1748359;82;21383;-58
2022/07/28 01:34:37;;;;;;;8.60;7.77;;;;;;;18.34;100.00;100012.91;1748618;82;21140;-58
2022/07/28 01:37:10;;;;;;;8.00;7.03;;;;;;;18.25;100.00;100016.45;1747769;82;21024;-64
2022/07/28 01:39:38;;;;;;;11.37;7.10;;;;;;;18.20;100.00;100021.13;1747228;81;21719;-59
2022/07/28 01:42:06;;;;;;;9.13;6.83;;;;;;;18.15;100.00;100020.25;1748474;82;20916;-59
2022/07/28 01:44:37;;;;;;;7.90;6.67;;;;;;;18.05;100.00;100018.75;1748021;82;22229;-60
2022/07/28 01:47:06;;;;;;;9.93;8.20;;;;;;;17.94;100.00;100021.73;1747846;82;21300;-61
2022/07/28 01:49:34;;;;;;;9.20;7.67;;;;;;;17.92;100.00;100019.86;1725127;82;21090;-59
2022/07/28 01:52:04;;;;;;;9.77;7.40;;;;;;;17.86;100.00;100020.80;1748288;82;21074;-59
2022/07/28 01:54:31;;;;;;;10.87;8.00;;;;;;;17.89;100.00;100025.08;1747739;82;21110;-60
2022/07/28 01:56:59;;;;;;;9.83;6.83;;;;;;;17.99;100.00;100032.36;1747789;82;21467;-61
2022/07/28 01:59:27;;;;;;;7.10;6.40;;;;;;;17.99;100.00;100033.67;1748076;82;21135;-59
2022/07/28 02:01:54;;;;;;;8.27;7.07;;;;;;;18.01;100.00;100034.77;1748283;82;20987;-59
2022/07/28 02:04:21;;;;;;;9.57;8.00;;;;;;;17.93;100.00;100030.69;1747070;80;20984;-59
2022/07/28 02:06:49;;;;;;;7.70;6.73;;;;;;;17.95;100.00;100038.62;1743620;82;21118;-58
2022/07/28 02:09:17;;;;;;;8.27;7.27;;;;;;;17.97;100.00;100041.04;1743224;82;20995;-58
2022/07/28 02:11:45;;;;;;;8.63;7.37;;;;;;;18.06;100.00;100036.17;1743702;82;21128;-58
2022/07/28 02:14:15;;;;;;;8.33;7.53;;;;;;;18.21;100.00;100040.39;1744157;82;21074;-58
2022/07/28 02:16:47;;;;;;;7.93;7.13;;;;;;;18.28;100.00;100046.84;1743150;82;21071;-59
2022/07/28 02:19:15;;;;;;;9.97;8.00;;;;;;;18.41;100.00;100042.55;1743352;82;20943;-59
2022/07/28 02:21:46;;;;;;;10.67;8.33;;;;;;;18.63;100.00;100042.11;1744050;82;21078;-58
2022/07/28 02:24:13;;;;;;;8.80;7.90;;;;;;;18.73;100.00;100049.43;1743513;80;22493;-59
2022/07/28 02:26:43;;;;;;;7.17;6.47;;;;;;;18.90;100.00;100045.43;1743488;82;21018;-58
2022/07/28 02:29:11;;;;;;;8.90;7.53;;;;;;;19.02;100.00;100049.32;1743765;82;21474;-58
2022/07/28 02:31:52;;;;;;;8.97;7.63;;;;;;;19.06;100.00;100057.03;1744008;82;21051;-59
2022/07/28 02:34:22;;;;;;;11.50;7.67;;;;;;;19.27;100.00;100058.09;1743073;82;21118;-63
2022/07/28 02:36:56;;;;;;;11.70;8.23;;;;;;;19.49;100.00;100061.53;1743554;82;21566;-58
2022/07/28 02:39:32;;;;;;;8.03;7.00;;;;;;;19.64;100.00;100060.95;1744082;82;21372;-58
2022/07/28 02:42:06;;;;;;;8.47;7.40;;;;;;;19.64;100.00;100062.27;1744251;82;21070;-58
2022/07/28 02:44:40;;;;;;;8.17;7.30;;;;;;;19.60;100.00;100065.90;1743369;82;21125;-60
2022/07/28 02:47:09;;;;;;;10.80;8.13;;;;;;;19.60;100.00;100061.94;1744159;82;21050;-60
2022/07/28 02:49:36;;;;;;;10.13;7.20;;;;;;;19.60;100.00;100067.75;1744253;82;21220;-58
2022/07/28 02:52:06;;;;;;;7.87;7.07;;;;;;;19.61;100.00;100066.69;1743672;82;21923;-59
2022/07/28 02:54:34;;;;;;;8.07;7.10;;;;;;;19.61;100.00;100069.34;1743964;82;21478;-62
2022/07/28 02:57:03;;;;;;;8.73;7.40;;;;;;;19.66;100.00;100072.89;1743948;82;21344;-57
2022/07/28 02:59:30;;;;;;;9.20;7.57;;;;;;;19.78;100.00;100066.14;1744205;82;20936;-59
2022/07/28 03:01:57;;;;;;;9.07;7.30;;;;;;;19.85;100.00;100069.39;1743204;82;21324;-60
2022/07/28 03:07:11;;;;;;;8.23;7.17;;;;;;;20.15;100.00;100071.54;1744088;82;21090;-59
2022/07/28 03:09:43;;;;;;;7.77;7.07;;;;;;;20.53;100.00;100068.45;1743159;82;20932;-62
2022/07/28 03:12:10;;;;;;;7.93;7.20;;;;;;;21.19;100.00;100067.27;1743664;82;21232;-59
2022/07/28 03:14:38;;;;;;;7.63;6.83;;;;;;;22.12;100.00;100058.01;1743501;82;21609;-60
2022/07/28 03:17:05;;;;;;;7.27;6.40;;;;;;;23.14;100.00;100055.30;1743642;80;20947;-59
2022/07/28 03:19:33;;;;;;;8.13;6.80;;;;;;;24.03;100.00;100051.43;1743478;82;21465;-62
2022/07/28 03:22:01;;;;;;;9.13;7.07;;;;;;;25.05;100.00;100051.86;1743736;82;21371;-59
2022/07/28 03:24:32;;;;;;;8.60;7.62;;;;;;;25.99;100.00;100043.22;1743386;82;21536;-58
2022/07/28 03:27:08;;;;;;;;;;;;;;;26.79;100.00;100037.34;1746603;80;21132;-61
2022/07/28 03:29:36;;;;;;;7.42;6.42;;;;;;;27.54;100.00;100035.58;1743444;82;20099;-59
2022/07/28 03:32:05;;;;;;;6.97;6.28;;;;;;;28.30;100.00;100037.03;1742852;82;21285;-61
2022/07/28 03:34:34;;;;;;;7.00;6.30;;;;;;;29.11;100.00;100044.60;1744161;82;21344;-59
2022/07/28 03:37:11;;;;;;;7.12;6.40;;;;;;;29.87;100.00;100040.20;1744128;82;21016;-60
2022/07/28 03:39:45;;;;;;;7.62;6.55;;;;;;;30.41;100.00;100047.32;1742424;82;21179;-63
2022/07/28 03:42:17;;;;;;;7.50;6.80;;;;;;;30.87;100.00;100041.72;1743674;82;21770;-59
2022/07/28 03:44:49;;;;;;;7.03;6.35;;;;;;;31.24;100.00;100040.87;1744268;82;21584;-62
2022/07/28 03:47:22;;;;;;;6.53;5.87;;;;;;;31.62;99.73;100039.99;1743440;82;20996;-60
2022/07/28 03:49:49;;;;;;;7.10;6.42;;;;;;;32.07;92.35;100042.00;1743194;82;21032;-60
2022/07/28 03:52:18;;;;;;;6.45;5.95;;;;;;;32.39;85.79;100049.03;1744149;82;21202;-61
2022/07/28 03:54:45;;;;;;;7.80;7.00;;;;;;;32.73;78.24;100049.22;1743956;82;20889;-59
2022/07/28 03:57:12;;;;;;;6.70;6.10;;;;;;;32.90;74.05;100046.87;1743156;82;20896;-69
2022/07/28 03:59:41;;;;;;;5.95;5.45;;;;;;;33.22;71.40;100054.63;1744184;82;22471;-63
2022/07/28 04:02:08;;;;;;;8.35;5.90;;;;;;;33.68;66.01;100062.00;1743384;82;21081;-59
2022/07/28 04:04:36;;;;;;;5.83;5.33;;;;;;;34.13;62.94;100055.49;1743672;81;21278;-58
2022/07/28 04:07:03;;;;;;;6.60;6.00;;;;;;;34.50;59.63;100057.45;1744055;82;20983;-69
2022/07/28 04:09:31;;;;;;;6.95;6.35;;;;;;;34.91;56.99;100054.55;1743623;82;21004;-59
2022/07/28 04:11:59;;;;;;;8.93;5.97;;;;;;;35.27;54.76;100052.07;1743652;82;20968;-70
2022/07/28 04:14:27;;;;;;;6.92;6.33;;;;;;;35.60;51.85;100053.56;1743933;82;21065;-59
2022/07/28 04:16:54;;;;;;;6.53;5.92;;;;;;;35.61;50.89;100047.77;1744339;82;21269;-69
2022/07/28 04:19:22;;;;;;;6.95;6.15;;;;;;;35.94;49.42;100049.97;1743595;82;21066;-59
2022/07/28 04:21:50;;;;;;;6.87;6.20;;;;;;;36.20;49.12;100056.09;1744052;82;21113;-70
2022/07/28 04:24:17;;;;;;;7.03;6.42;;;;;;;36.62;48.11;100049.83;1744035;82;21035;-58
2022/07/28 04:26:44;;;;;;;8.40;6.72;;;;;;;36.96;45.73;100055.41;1743828;82;21020;-59
2022/07/28 04:29:11;;;;;;;7.30;6.60;;;;;;;37.20;45.69;100052.83;1744003;82;21150;-66
2022/07/28 04:31:39;;;;;;;7.17;6.50;;;;;;;37.65;44.15;100051.86;1743925;82;21137;-58
2022/07/28 04:34:06;;;;;;;7.60;6.90;;;;;;;38.03;42.78;100050.55;1743399;82;21126;-62
2022/07/28 04:36:40;;;;;;;8.63;7.70;;;;;;;38.36;41.73;100049.71;1744069;82;21312;-60
2022/07/28 04:39:04;;;;;;;8.93;7.78;;;;;;;38.62;40.49;100048.75;1742780;82;20868;-68
2022/07/28 04:41:31;;;;;;;8.18;7.40;;;;;;;38.78;39.90;100045.74;1744371;82;22236;-60
2022/07/28 04:43:58;;;;;;;9.18;8.38;;;;;;;38.82;40.15;100045.99;1743550;82;20928;-59
2022/07/28 04:46:26;;;;;;;8.53;7.72;;;;;;;39.01;39.47;100042.80;1744191;82;21540;-59
2022/07/28 04:48:53;;;;;;;8.58;7.87;;;;;;;39.29;39.12;100045.70;1744038;82;21548;-66
2022/07/28 04:51:22;;;;;;;8.13;7.33;;;;;;;39.65;38.39;100045.82;1743515;82;21007;-60
2022/07/28 04:53:49;;;;;;;7.97;7.28;;;;;;;39.81;37.62;100047.64;1743246;82;21147;-59
2022/07/28 04:56:16;;;;;;;8.78;7.87;;;;;;;39.93;37.43;100047.88;1744163;82;21047;-58
2022/07/28 04:58:44;;;;;;;7.72;7.08;;;;;;;39.95;37.41;100047.48;1743760;82;21074;-61
2022/07/28 05:01:12;;;;;;;8.80;7.45;;;;;;;40.10;37.31;100051.20;1743762;82;21430;-58
2022/07/28 05:03:39;;;;;;;8.00;7.30;;;;;;;40.42;36.57;100057.28;1743459;82;21070;-60
2022/07/28 05:06:08;;;;;;;9.05;8.15;;;;;;;40.66;36.13;100057.11;1746830;81;21436;-58
2022/07/28 05:08:35;;;;;;;9.23;8.43;;;;;;;40.84;34.94;100055.14;1748280;82;21106;-66
2022/07/28 05:11:03;;;;;;;8.33;7.62;;;;;;;40.84;34.94;100055.14;1748093;82;20996;-58
2022/07/28 05:13:32;;;;;;;7.45;6.78;;;;;;;40.88;35.03;100059.23;1747943;82;20971;-61
2022/07/28 05:16:01;;;;;;;;;;;;;;;41.04;34.67;100056.87;1751146;82;21452;-58
2022/07/28 05:18:29;;;;;;;8.53;7.83;;;;;;;41.14;34.17;100059.36;1748180;82;21081;-58
2022/07/28 05:20:56;;;;;;;7.83;7.08;;;;;;;41.25;33.87;100066.16;1747998;82;20955;-58
2022/07/28 05:23:23;;;;;;;10.58;8.13;;;;;;;41.45;33.87;100062.42;1748240;82;21509;-61
2022/07/28 05:25:50;;;;;;;8.73;8.03;;;;;;;41.50;33.67;100058.67;1747816;82;20940;-60
2022/07/28 05:28:18;;;;;;;8.63;7.80;;;;;;;41.60;33.63;100063.11;1748275;82;21049;-58
2022/07/28 05:30:45;;;;;;;7.90;7.08;;;;;;;41.75;33.26;100062.66;1747711;82;21150;-59
2022/07/28 05:33:15;;;;;;;9.08;7.83;;;;;;;41.97;32.96;100061.16;1748251;82;21037;-58
2022/07/28 05:35:44;;;;;;;8.93;8.03;;;;;;;42.22;32.59;100063.73;1747525;82;20923;-60
2022/07/28 05:38:12;;;;;;;7.40;6.72;;;;;;;42.58;32.32;100060.70;1724679;82;21571;-59
2022/07/28 05:40:39;;;;;;;7.72;7.03;;;;;;;42.82;31.85;100064.42;1747611;82;22224;-60
2022/07/28 05:43:08;;;;;;;8.05;7.35;;;;;;;43.03;31.51;100061.43;1748280;82;21108;-63
2022/07/28 05:45:37;;;;;;;8.00;7.30;;;;;;;43.29;30.82;100067.44;1747727;82;20991;-60
2022/07/28 05:48:06;;;;;;;8.13;7.40;;;;;;;43.08;30.99;100066.52;1748181;82;21363;-59
2022/07/28 05:50:35;;;;;;;8.30;7.60;;;;;;;43.01;30.88;100074.79;1748310;82;20947;-65
2022/07/28 05:53:02;;;;;;;7.87;7.17;;;;;;;42.92;30.75;100073.11;1748063;82;21026;-58
2022/07/28 05:55:29;;;;;;;8.40;7.70;;;;;;;42.98;31.05;100070.12;1747536;81;21290;-63
2022/07/28 05:58:01;;;;;;;8.88;8.08;;;;;;;42.95;30.83;100070.92;1748141;82;21976;-58
2022/07/28 06:00:30;;;;;;;8.08;6.65;;;;;;;42.88;30.97;100074.52;1748417;82;20963;-66
2022/07/28 06:03:00;;;;;;;7.72;7.03;;;;;;;43.02;31.09;100070.08;1748127;82;23010;-59
2022/07/28 06:05:29;;;;;;;7.42;6.72;;;;;;;43.31;30.52;100074.08;1747011;81;21020;-58
2022/07/28 06:07:57;;;;;;;8.07;7.27;;;;;;;43.40;30.58;100079.06;1744218;82;21420;-59
2022/07/28 06:10:26;;;;;;;7.45;6.85;;;;;;;43.41;30.41;100077.27;1744167;82;20975;-66
2022/07/28 06:12:56;;;;;;;8.05;7.30;;;;;;;43.56;30.44;100076.52;1743961;82;21054;-57
2022/07/28 06:15:25;;;;;;;8.00;7.25;;;;;;;43.73;29.94;100082.19;1743512;82;20925;-60
2022/07/28 06:17:54;;;;;;;8.05;7.30;;;;;;;43.71;30.38;100083.96;1744209;82;21042;-57
2022/07/28 06:20:22;;;;;;;7.40;6.67;;;;;;;43.95;29.87;100082.87;1743833;82;21241;-57
2022/07/28 06:22:51;;;;;;;8.90;8.10;;;;;;;44.17;29.69;100076.42;1743336;82;21098;-59
2022/07/28 06:25:24;;;;;;;8.98;8.18;;;;;;;44.30;29.63;100080.00;1743319;82;22361;-60
2022/07/28 06:27:54;;;;;;;8.28;7.67;;;;;;;44.11;29.13;100075.36;1743571;82;21909;-58
2022/07/28 06:30:21;;;;;;;8.13;7.40;;;;;;;43.61;29.80;100078.05;1743633;82;21117;-59
2022/07/28 06:32:49;;;;;;;8.18;7.47;;;;;;;42.98;30.44;100075.60;1743532;82;21372;-59
2022/07/28 06:35:16;;;;;;;7.25;6.62;;;;;;;42.62;30.89;100075.95;1743668;82;21035;-67
2022/07/28 06:37:44;;;;;;;8.53;7.70;;;;;;;42.42;30.75;100072.97;1743849;82;21791;-59
2022/07/28 06:40:12;;;;;;;8.80;8.00;;;;;;;42.36;31.71;100069.72;1743883;82;20925;-59
2022/07/28 06:42:42;;;;;;;8.98;7.95;;;;;;;41.56;33.38;100073.50;1743517;82;21529;-63
2022/07/28 06:45:10;;;;;;;9.00;7.62;;;;;;;41.56;33.38;100073.50;1743718;82;21221;-66
2022/07/28 06:47:37;;;;;;;8.50;7.72;;;;;;;41.50;32.82;100077.05;1743751;82;20992;-60
2022/07/28 06:50:06;;;;;;;9.05;8.15;;;;;;;41.01;33.76;100076.02;1744012;82;21024;-59
2022/07/28 06:52:34;;;;;;;8.70;7.90;;;;;;;40.74;34.14;100079.16;1744150;82;21043;-60
2022/07/28 06:55:01;;;;;;;8.30;7.50;;;;;;;40.60;34.13;100079.94;1743740;82;20935;-60
2022/07/28 06:57:30;;;;;;;7.65;6.83;;;;;;;40.64;34.26;100073.70;1743274;82;21856;-59
2022/07/28 06:59:57;;;;;;;8.45;7.65;;;;;;;40.73;34.73;100076.83;1744107;82;21463;-60
2022/07/28 07:02:26;;;;;;;7.92;7.10;;;;;;;40.90;34.93;100075.23;1744185;82;21576;-59
2022/07/28 07:04:53;;;;;;;9.28;6.75;;;;;;;41.08;34.02;100079.51;1743491;82;20956;-59
2022/07/28 07:07:22;;;;;;;7.37;6.55;;;;;;;41.36;33.79;100076.48;1747363;81;21021;-60
2022/07/28 07:09:50;;;;;;;8.85;7.33;;;;;;;41.64;33.26;100076.98;1748079;82;21150;-61
2022/07/28 07:12:17;;;;;;;8.00;7.20;;;;;;;42.11;32.58;100075.35;1748095;82;21011;-59
2022/07/28 07:14:44;;;;;;;7.53;6.80;;;;;;;42.76;31.66;100075.81;1747413;82;21019;-59
2022/07/28 07:17:12;;;;;;;7.47;6.78;;;;;;;43.12;31.49;100078.22;1748028;81;21436;-60
2022/07/28 07:19:39;;;;;;;7.50;6.85;;;;;;;43.44;30.64;100087.42;1748251;82;21483;-58
2022/07/28 07:22:06;;;;;;;7.05;6.42;;;;;;;43.54;30.12;100081.66;1747848;82;21149;-62
2022/07/28 07:24:36;;;;;;;6.50;5.95;;;;;;;43.41;29.73;100083.34;1747396;82;21042;-60
2022/07/28 07:27:04;;;;;;;7.33;6.42;;;;;;;43.47;29.50;100081.74;1748402;82;21050;-58
2022/07/28 07:29:33;;;;;;;;;;;;;;;43.56;29.49;100078.48;1750393;82;20900;-59
2022/07/28 07:32:00;;;;;;;6.75;6.12;;;;;;;43.40;29.21;100083.17;1747961;82;20229;-60
2022/07/28 07:34:27;;;;;;;7.62;6.83;;;;;;;43.07;28.95;100080.62;1747140;82;21317;-59
2022/07/28 07:36:55;;;;;;;7.62;6.85;;;;;;;42.64;29.95;100083.16;1747892;82;21446;-59
2022/07/28 07:39:24;;;;;;;7.28;6.53;;;;;;;42.38;29.80;100078.30;1748451;82;21045;-66
2022/07/28 07:41:51;;;;;;;6.45;5.70;;;;;;;41.89;30.20;100073.34;1748370;82;21021;-59
2022/07/28 07:44:18;;;;;;;6.00;5.05;;;;;;;41.07;31.13;100078.55;1747549;82;21047;-60
2022/07/28 07:46:45;;;;;;;6.40;4.83;;;;;;;40.89;31.37;100074.45;1748565;82;21293;-58
2022/07/28 07:49:12;;;;;;;5.80;5.20;;;;;;;41.17;29.72;100075.58;1748529;82;20986;-59
2022/07/28 07:51:40;;;;;;;5.65;5.10;;;;;;;41.15;29.35;100075.20;1747698;82;21717;-59
2022/07/28 07:54:07;;;;;;;4.78;4.28;;;;;;;41.19;30.02;100077.34;1748278;82;21054;-64
2022/07/28 07:56:35;;;;;;;6.58;5.05;;;;;;;41.77;29.62;100071.23;1747737;82;20995;-61
2022/07/28 07:59:02;;;;;;;9.15;4.55;;;;;;;42.43;29.03;100075.11;1748123;82;21156;-58
2022/07/28 08:01:30;;;;;;;5.35;4.55;;;;;;;42.60;28.07;100074.19;1748325;82;21114;-66
2022/07/28 08:03:59;;;;;;;4.67;4.22;;;;;;;42.67;27.31;100069.27;1747922;82;21070;-57
2022/07/28 08:06:26;;;;;;;5.03;4.60;;;;;;;42.52;27.16;100074.07;1746456;81;21095;-58
2022/07/28 08:08:54;;;;;;;5.30;4.70;;;;;;;42.60;28.29;100068.70;1744183;82;21669;-58
2022/07/28 08:11:22;;;;;;;5.30;4.80;;;;;;;42.68;27.84;100070.22;1744040;80;21101;-59
2022/07/28 08:13:50;;;;;;;7.08;5.08;;;;;;;42.84;27.86;100068.30;1743291;82;20984;-58
2022/07/28 08:16:18;;;;;;;4.42;3.60;;;;;;;42.82;28.06;100072.05;1743495;82;20983;-59
2022/07/28 08:18:47;;;;;;;4.47;4.00;;;;;;;42.82;26.50;100071.28;1743932;82;21470;-58
2022/07/28 08:21:15;;;;;;;4.70;4.30;;;;;;;42.46;26.53;100072.94;1744152;82;21310;-58
2022/07/28 08:23:43;;;;;;;4.50;4.05;;;;;;;42.20;27.48;100061.97;1743961;82;21592;-66
2022/07/28 08:26:10;;;;;;;4.15;3.72;;;;;;;42.11;27.54;100067.14;1742980;82;20978;-61
2022/07/28 08:28:38;;;;;;;4.17;3.65;;;;;;;41.97;27.57;100066.63;1744107;82;21038;-59
2022/07/28 08:31:05;;;;;;;4.15;3.58;;;;;;;41.62;27.55;100069.75;1744470;82;21510;-60
2022/07/28 08:33:33;;;;;;;3.85;3.45;;;;;;;41.11;28.30;100074.41;1744779;82;20940;-58
2022/07/28 08:36:01;;;;;;;4.03;3.60;;;;;;;40.60;28.49;100075.84;1743621;82;21159;-65
2022/07/28 08:38:28;;;;;;;4.15;3.20;;;;;;;40.45;29.07;100072.12;1744123;82;21281;-60
2022/07/28 08:40:56;;;;;;;5.30;3.10;;;;;;;40.58;28.27;100078.80;1744157;82;21552;-58
2022/07/28 08:43:35;;;;;;;3.22;2.87;;;;;;;40.59;28.37;100082.48;1744545;82;21012;-59
2022/07/28 08:46:05;;;;;;;7.42;3.85;;;;;;;40.84;28.75;100072.91;1744054;82;21043;-59
2022/07/28 08:48:35;;;;;;;3.70;3.33;;;;;;;41.21;28.00;100067.55;1744799;82;21143;-62
2022/07/28 08:51:05;;;;;;;4.47;3.65;;;;;;;41.46;27.60;100070.81;1744907;82;20985;-58
2022/07/28 08:53:38;;;;;;;3.85;3.37;;;;;;;41.29;27.71;100071.80;1744611;81;20999;-59
2022/07/28 08:56:16;;;;;;;5.62;3.60;;;;;;;41.11;28.05;100078.51;1744395;82;21051;-59
2022/07/28 08:58:43;;;;;;;4.25;3.33;;;;;;;40.92;27.76;100074.27;1744712;82;20971;-58
2022/07/28 09:01:12;;;;;;;4.50;3.65;;;;;;;40.80;28.00;100078.97;1744948;82;21781;-60
2022/07/28 09:03:40;;;;;;;4.10;3.67;;;;;;;40.96;27.30;100077.77;1743942;82;21012;-60
2022/07/28 09:06:07;;;;;;;4.05;3.20;;;;;;;41.14;27.29;100071.66;1744876;80;21551;-60
2022/07/28 09:08:35;;;;;;;4.55;3.47;;;;;;;41.42;28.24;100074.16;1744323;81;21042;-58
2022/07/28 09:11:06;;;;;;;3.50;2.90;;;;;;;41.77;27.93;100071.23;1716209;82;21422;-58
2022/07/28 09:13:34;;;;;;;4.53;4.00;;;;;;;42.23;27.86;100077.00;1744071;82;21545;-60
2022/07/28 09:16:02;;;;;;;4.42;4.03;;;;;;;42.72;26.33;100073.70;1744853;82;21796;-60
2022/07/28 09:18:30;;;;;;;3.90;3.50;;;;;;;42.78;26.30;100069.17;1744961;82;21058;-58
2022/07/28 09:20:58;;;;;;;5.35;3.58;;;;;;;42.53;26.54;100075.03;1744831;82;21002;-58
2022/07/28 09:23:26;;;;;;;3.83;3.40;;;;;;;42.35;26.34;100073.63;1744601;82;20984;-66
2022/07/28 09:26:07;;;;;;;4.40;3.70;;;;;;;41.92;27.57;100069.80;1714695;82;22338;-60
2022/07/28 09:28:51;;;;;;;4.17;3.60;;;;;;;41.58;27.28;100075.83;1744339;82;21032;-58
2022/07/28 09:31:18;;;;;;;5.58;3.87;;;;;;;41.13;27.24;100075.58;1718269;82;20928;-61
2022/07/28 09:34:03;;;;;;;4.15;3.60;;;;;;;40.62;28.18;100073.33;1744604;82;21511;-57
2022/07/28 09:36:39;;;;;;;4.25;3.85;;;;;;;40.14;28.69;100079.91;1744907;82;21016;-57
2022/07/28 09:39:06;;;;;;;5.37;3.65;;;;;;;39.65;29.67;100086.16;1743839;82;21213;-58
2022/07/28 09:41:54;;;;;;;5.03;3.30;;;;;;;39.33;30.39;100082.53;1744251;82;21055;-58
2022/07/28 09:44:23;;;;;;;5.00;3.62;;;;;;;39.12;30.96;100079.08;1715965;82;21015;-68
2022/07/28 09:46:50;;;;;;;5.60;3.35;;;;;;;39.05;30.97;100072.21;1743398;82;21450;-59
2022/07/28 09:49:18;;;;;;;5.33;3.85;;;;;;;38.92;31.17;100079.34;1744542;82;21042;-58
2022/07/28 09:52:02;;;;;;;4.28;3.87;;;;;;;39.09;30.95;100077.10;1744365;82;21195;-58
2022/07/28 09:54:30;;;;;;;3.80;3.40;;;;;;;39.55;30.01;100071.11;1743775;82;21043;-61
2022/07/28 09:56:57;;;;;;;3.85;3.37;;;;;;;39.99;29.46;100071.47;1743882;82;21536;-61
2022/07/28 09:59:24;;;;;;;4.03;3.62;;;;;;;40.43;28.52;100077.20;1744482;82;21071;-57
2022/07/28 10:01:59;;;;;;;4.30;3.30;;;;;;;40.90;29.31;100084.80;1744257;82;20976;-58
2022/07/28 10:04:40;;;;;;;4.58;3.62;;;;;;;41.43;27.79;100077.84;1743825;82;21119;-64
2022/07/28 10:07:16;;;;;;;4.17;3.25;;;;;;;41.66;26.77;100075.20;1744043;80;20980;-58
2022/07/28 10:10:05;;;;;;;6.15;3.87;;;;;;;41.55;27.88;100075.25;1748962;82;21249;-58
2022/07/28 10:12:35;;;;;;;4.53;4.05;;;;;;;41.85;27.33;100075.33;1749354;82;20999;-58
2022/07/28 10:18:03;;;;;;;4.17;3.77;;;;;;;42.12;26.03;100059.88;1748906;82;21341;-58
2022/07/28 10:20:32;;;;;;;4.20;3.70;;;;;;;42.04;26.33;100069.33;1748901;82;21002;-58
2022/07/28 10:23:06;;;;;;;6.25;3.98;;;;;;;41.92;27.11;100062.96;1749225;82;21439;-58
2022/07/28 10:25:33;;;;;;;4.30;3.90;;;;;;;41.66;27.23;100064.26;1724658;82;21110;-59
2022/07/28 10:28:02;;;;;;;4.35;3.77;;;;;;;41.59;27.14;100069.77;1748539;82;21519;-59
2022/07/28 10:30:34;;;;;;;5.50;3.80;;;;;;;41.17;26.73;100070.87;1748800;82;21268;-58
2022/07/28 10:33:04;;;;;;;3.58;3.25;;;;;;;40.69;27.69;100068.63;1726075;82;21502;-58
2022/07/28 10:35:31;;;;;;;;;;;;;;;40.47;28.21;100065.69;1750517;82;21556;-59
2022/07/28 10:38:01;;;;;;;3.85;3.30;;;;;;;40.79;27.00;100062.94;1749057;82;20632;-58
2022/07/28 10:40:35;;;;;;;4.95;3.92;;;;;;;41.20;27.13;100060.52;1749080;82;20904;-58
2022/07/28 10:43:04;;;;;;;4.17;3.77;;;;;;;41.55;26.59;100060.98;1748829;82;21134;-66
2022/07/28 10:45:31;;;;;;;4.33;3.65;;;;;;;41.97;26.56;100061.16;1725151;82;21027;-59
2022/07/28 10:47:58;;;;;;;4.72;3.67;;;;;;;42.20;25.92;100060.00;1748891;82;21514;-57
2022/07/28 10:50:26;;;;;;;4.08;3.35;;;;;;;42.15;26.10;100052.82;1748668;82;21493;-57
2022/07/28 10:52:53;;;;;;;4.37;3.90;;;;;;;42.23;27.05;100061.94;1749049;82;21047;-57
2022/07/28 10:55:45;;;;;;;4.10;3.70;;;;;;;42.45;26.50;100063.95;1747832;82;21178;-63
2022/07/28 10:58:39;;;;;;;4.20;3.80;;;;;;;42.65;26.25;100060.63;1749341;82;20952;-57
2022/07/28 11:01:07;;;;;;;4.90;3.27;;;;;;;42.53;25.99;100054.47;1748551;82;22522;-58
2022/07/28 11:03:42;;;;;;;3.90;3.50;;;;;;;42.57;25.62;100054.44;1748766;82;20971;-57
2022/07/28 11:06:38;;;;;;;4.72;3.50;;;;;;;42.71;25.49;100057.08;1748498;82;20987;-65
2022/07/28 11:09:21;;;;;;;3.95;3.50;;;;;;;42.88;25.69;100051.21;1748305;81;21142;-58
2022/07/28 11:11:51;;;;;;;5.75;4.08;;;;;;;43.09;25.80;100063.95;1747665;82;20971;-60
2022/07/28 11:14:32;;;;;;;4.17;3.70;;;;;;;43.23;24.97;100055.55;1748076;82;21587;-58
2022/07/28 11:17:13;;;;;;;4.00;3.60;;;;;;;42.84;25.89;100058.70;1748722;82;21074;-57
2022/07/28 11:19:50;;;;;;;3.72;3.42;;;;;;;42.61;25.50;100064.77;1746249;81;20982;-61
2022/07/28 11:22:21;;;;;;;4.00;3.60;;;;;;;42.31;25.20;100055.84;1748540;82;21237;-57
2022/07/28 11:25:03;;;;;;;4.42;3.70;;;;;;;41.78;25.55;100064.56;1748383;82;21466;-58
2022/07/28 11:27:45;;;;;;;4.62;3.50;;;;;;;41.14;26.02;100057.99;1747857;82;21085;-58
2022/07/28 11:33:01;;;;;;;4.17;3.67;;;;;;;40.42;26.95;100059.23;1747618;82;21006;-58
2022/07/28 11:35:29;;;;;;;3.83;3.22;;;;;;;40.02;27.15;100062.51;1748542;82;22003;-58
2022/07/28 11:38:06;;;;;;;4.03;3.62;;;;;;;39.64;27.50;100062.00;1748703;82;21035;-57
2022/07/28 11:40:51;;;;;;;5.17;3.70;;;;;;;39.46;27.56;100065.24;1747720;82;22153;-56
2022/07/28 11:43:30;;;;;;;5.25;3.58;;;;;;;39.45;28.33;100063.69;1748392;82;20995;-58
2022/07/28 11:46:09;;;;;;;4.47;3.87;;;;;;;39.80;28.30;100055.63;1748404;82;20892;-64
2022/07/28 11:48:38;;;;;;;6.92;4.42;;;;;;;40.11;28.13;100056.08;1747745;82;21274;-58